sensor_id;sensor_type;location;lat;lon;timestamp;P1;durP1;ratioP1;P2;durP2;ratioP2
13832;SDS011;6987;19.472;-99.276;2023-07-22T00:00:32;4.88;;;2.25;;
13832;SDS011;6987;19.472;-99.276;2023-07-22T00:03:01;3.10;;;2.10;;
13832;SDS011;6987;19.472;-99.276;2023-07-22T00:05:32;2.58;;;2.13;;
13832;SDS011;6987;19.472;-99.276;2023-07-22T00:08:01;2.13;;;2.03;;
13832;SDS011;6987;19.472;-99.276;2023-07-22T00:10:30;1.98;;;1.88;;
13832;SDS011;6987;19.472;-99.276;2023-07-22T00:12:59;5.13;;;2.42;;
13832;SDS011;6987;19.472;-99.276;2023-07-22T00:15:28;2.47;;;2.38;;
13832;SDS011;6987;19.472;-99.276;2023-07-22T00:17:57;3.10;;;2.75;;
13832;SDS011;6987;19.472;-99.276;2023-07-22T00:20:26;3.38;;;2.70;;
13832;SDS011;6987;19.472;-99.276;2023-07-22T00:22:57;2.92;;;2.63;;
13832;SDS011;6987;19.472;-99.276;2023-07-22T00:25:26;4.90;;;2.88;;
13832;SDS011;6987;19.472;-99.276;2023-07-22T00:27:55;5.00;;;2.55;;
13832;SDS011;6987;19.472;-99.276;2023-07-22T00:30:24;2.85;;;2.50;;
13832;SDS011;6987;19.472;-99.276;2023-07-22T00:32:54;4.38;;;2.17;;
13832;SDS011;6987;19.472;-99.276;2023-07-22T00:35:23;3.25;;;2.10;;
13832;SDS011;6987;19.472;-99.276;2023-07-22T00:37:52;2.08;;;1.90;;
13832;SDS011;6987;19.472;-99.276;2023-07-22T00:40:22;3.88;;;2.45;;
13832;SDS011;6987;19.472;-99.276;2023-07-22T00:42:52;2.47;;;2.28;;
13832;SDS011;6987;19.472;-99.276;2023-07-22T00:45:21;2.53;;;2.33;;
13832;SDS011;6987;19.472;-99.276;2023-07-22T00:47:50;5.85;;;2.28;;
13832;SDS011;6987;19.472;-99.276;2023-07-22T00:50:19;2.30;;;2.10;;
13832;SDS011;6987;19.472;-99.276;2023-07-22T00:52:50;2.67;;;2.08;;
13832;SDS011;6987;19.472;-99.276;2023-07-22T00:55:19;4.22;;;2.35;;
13832;SDS011;6987;19.472;-99.276;2023-07-22T00:57:51;3.83;;;2.22;;
13832;SDS011;6987;19.472;-99.276;2023-07-22T01:00:20;4.32;;;2.58;;
13832;SDS011;6987;19.472;-99.276;2023-07-22T01:02:49;2.60;;;2.25;;
13832;SDS011;6987;19.472;-99.276;2023-07-22T01:05:18;4.07;;;2.30;;
13832;SDS011;6987;19.472;-99.276;2023-07-22T01:07:47;2.42;;;2.30;;
13832;SDS011;6987;19.472;-99.276;2023-07-22T01:10:16;3.92;;;2.13;;
13832;SDS011;6987;19.472;-99.276;2023-07-22T01:12:45;4.28;;;2.13;;
13832;SDS011;6987;19.472;-99.276;2023-07-22T01:15:16;4.07;;;2.50;;
13832;SDS011;6987;19.472;-99.276;2023-07-22T01:17:45;2.67;;;2.35;;
13832;SDS011;6987;19.472;-99.276;2023-07-22T01:20:14;3.60;;;2.47;;
13832;SDS011;6987;19.472;-99.276;2023-07-22T01:22:49;2.72;;;2.33;;
13832;SDS011;6987;19.472;-99.276;2023-07-22T01:25:19;3.53;;;3.22;;
13832;SDS011;6987;19.472;-99.276;2023-07-22T01:27:49;2.33;;;2.22;;
13832;SDS011;6987;19.472;-99.276;2023-07-22T01:30:19;4.53;;;2.42;;
13832;SDS011;6987;19.472;-99.276;2023-07-22T01:32:48;2.50;;;2.30;;
13832;SDS011;6987;19.472;-99.276;2023-07-22T01:35:17;4.40;;;2.42;;
13832;SDS011;6987;19.472;-99.276;2023-07-22T01:37:48;3.90;;;2.50;;
13832;SDS011;6987;19.472;-99.276;2023-07-22T01:40:17;2.65;;;2.50;;
13832;SDS011;6987;19.472;-99.276;2023-07-22T01:42:46;4.88;;;2.63;;
13832;SDS011;6987;19.472;-99.276;2023-07-22T01:45:15;2.28;;;2.00;;
13832;SDS011;6987;19.472;-99.276;2023-07-22T01:47:44;3.05;;;2.70;;
13832;SDS011;6987;19.472;-99.276;2023-07-22T01:50:13;2.88;;;2.58;;
13832;SDS011;6987;19.472;-99.276;2023-07-22T01:52:44;2.58;;;2.30;;
13832;SDS011;6987;19.472;-99.276;2023-07-22T01:55:15;3.72;;;2.60;;
13832;SDS011;6987;19.472;-99.276;2023-07-22T01:57:44;2.63;;;2.30;;
13832;SDS011;6987;19.472;-99.276;2023-07-22T02:00:14;3.17;;;2.50;;
13832;SDS011;6987;19.472;-99.276;2023-07-22T02:02:43;7.50;;;2.90;;
13832;SDS011;6987;19.472;-99.276;2023-07-22T02:05:12;3.47;;;3.00;;
13832;SDS011;6987;19.472;-99.276;2023-07-22T02:07:41;3.72;;;3.40;;
13832;SDS011;6987;19.472;-99.276;2023-07-22T02:10:10;5.30;;;3.38;;
13832;SDS011;6987;19.472;-99.276;2023-07-22T02:12:41;3.47;;;3.25;;
13832;SDS011;6987;19.472;-99.276;2023-07-22T02:15:10;3.05;;;2.85;;
13832;SDS011;6987;19.472;-99.276;2023-07-22T02:17:39;5.38;;;3.60;;
13832;SDS011;6987;19.472;-99.276;2023-07-22T02:20:08;4.00;;;3.38;;
13832;SDS011;6987;19.472;-99.276;2023-07-22T02:22:38;2.97;;;2.78;;
13832;SDS011;6987;19.472;-99.276;2023-07-22T02:25:08;3.03;;;2.83;;
13832;SDS011;6987;19.472;-99.276;2023-07-22T02:27:42;3.13;;;2.92;;
13832;SDS011;6987;19.472;-99.276;2023-07-22T02:30:12;3.33;;;2.92;;
13832;SDS011;6987;19.472;-99.276;2023-07-22T02:32:40;3.28;;;2.65;;
13832;SDS011;6987;19.472;-99.276;2023-07-22T02:35:10;2.83;;;2.63;;
13832;SDS011;6987;19.472;-99.276;2023-07-22T02:37:38;3.95;;;2.78;;
13832;SDS011;6987;19.472;-99.276;2023-07-22T02:40:07;3.45;;;2.55;;
13832;SDS011;6987;19.472;-99.276;2023-07-22T02:42:38;3.10;;;2.80;;
13832;SDS011;6987;19.472;-99.276;2023-07-22T02:45:10;6.88;;;3.65;;
13832;SDS011;6987;19.472;-99.276;2023-07-22T02:47:40;4.53;;;3.45;;
13832;SDS011;6987;19.472;-99.276;2023-07-22T02:50:09;5.18;;;3.80;;
13832;SDS011;6987;19.472;-99.276;2023-07-22T02:52:38;4.15;;;3.22;;
13832;SDS011;6987;19.472;-99.276;2023-07-22T02:55:08;8.23;;;3.40;;
13832;SDS011;6987;19.472;-99.276;2023-07-22T02:57:38;5.85;;;3.60;;
13832;SDS011;6987;19.472;-99.276;2023-07-22T03:00:10;5.68;;;3.83;;
13832;SDS011;6987;19.472;-99.276;2023-07-22T03:02:39;5.60;;;3.70;;
13832;SDS011;6987;19.472;-99.276;2023-07-22T03:05:08;11.57;;;3.90;;
13832;SDS011;6987;19.472;-99.276;2023-07-22T03:07:38;5.00;;;3.80;;
13832;SDS011;6987;19.472;-99.276;2023-07-22T03:10:07;5.50;;;3.45;;
13832;SDS011;6987;19.472;-99.276;2023-07-22T03:12:37;4.60;;;4.20;;
13832;SDS011;6987;19.472;-99.276;2023-07-22T03:15:06;5.93;;;3.63;;
13832;SDS011;6987;19.472;-99.276;2023-07-22T03:17:37;4.88;;;4.45;;
13832;SDS011;6987;19.472;-99.276;2023-07-22T03:20:07;5.20;;;4.35;;
13832;SDS011;6987;19.472;-99.276;2023-07-22T03:22:39;4.85;;;4.38;;
13832;SDS011;6987;19.472;-99.276;2023-07-22T03:25:09;4.00;;;3.70;;
13832;SDS011;6987;19.472;-99.276;2023-07-22T03:27:38;4.20;;;3.92;;
13832;SDS011;6987;19.472;-99.276;2023-07-22T03:30:08;7.75;;;4.60;;
13832;SDS011;6987;19.472;-99.276;2023-07-22T03:32:40;4.88;;;4.20;;
13832;SDS011;6987;19.472;-99.276;2023-07-22T03:35:09;5.30;;;4.10;;
13832;SDS011;6987;19.472;-99.276;2023-07-22T03:37:39;4.75;;;4.13;;
13832;SDS011;6987;19.472;-99.276;2023-07-22T03:40:09;5.95;;;4.10;;
13832;SDS011;6987;19.472;-99.276;2023-07-22T03:42:45;6.25;;;3.90;;
13832;SDS011;6987;19.472;-99.276;2023-07-22T03:45:14;7.07;;;3.95;;
13832;SDS011;6987;19.472;-99.276;2023-07-22T03:47:45;3.95;;;3.65;;
13832;SDS011;6987;19.472;-99.276;2023-07-22T03:50:14;8.68;;;4.40;;
13832;SDS011;6987;19.472;-99.276;2023-07-22T03:52:44;8.15;;;4.10;;
13832;SDS011;6987;19.472;-99.276;2023-07-22T03:55:13;5.20;;;3.95;;
13832;SDS011;6987;19.472;-99.276;2023-07-22T03:57:42;4.25;;;3.95;;
13832;SDS011;6987;19.472;-99.276;2023-07-22T04:00:11;5.20;;;4.43;;
13832;SDS011;6987;19.472;-99.276;2023-07-22T04:02:40;5.30;;;4.28;;
13832;SDS011;6987;19.472;-99.276;2023-07-22T04:05:12;6.15;;;3.60;;
13832;SDS011;6987;19.472;-99.276;2023-07-22T04:07:41;4.63;;;4.32;;
13832;SDS011;6987;19.472;-99.276;2023-07-22T04:10:10;5.45;;;4.10;;
13832;SDS011;6987;19.472;-99.276;2023-07-22T04:12:39;4.00;;;3.67;;
13832;SDS011;6987;19.472;-99.276;2023-07-22T04:15:09;8.63;;;4.68;;
13832;SDS011;6987;19.472;-99.276;2023-07-22T04:17:38;4.20;;;3.88;;
13832;SDS011;6987;19.472;-99.276;2023-07-22T04:20:08;4.15;;;3.60;;
13832;SDS011;6987;19.472;-99.276;2023-07-22T04:22:39;4.90;;;4.13;;
13832;SDS011;6987;19.472;-99.276;2023-07-22T04:25:08;5.60;;;3.83;;
13832;SDS011;6987;19.472;-99.276;2023-07-22T04:27:37;4.32;;;3.92;;
13832;SDS011;6987;19.472;-99.276;2023-07-22T04:30:06;15.20;;;3.70;;
13832;SDS011;6987;19.472;-99.276;2023-07-22T04:32:35;4.50;;;4.10;;
13832;SDS011;6987;19.472;-99.276;2023-07-22T04:35:05;5.13;;;4.43;;
13832;SDS011;6987;19.472;-99.276;2023-07-22T04:37:34;8.10;;;4.20;;
13832;SDS011;6987;19.472;-99.276;2023-07-22T04:40:06;4.90;;;4.47;;
13832;SDS011;6987;19.472;-99.276;2023-07-22T04:42:39;4.40;;;4.10;;
13832;SDS011;6987;19.472;-99.276;2023-07-22T04:45:09;4.78;;;4.35;;
13832;SDS011;6987;19.472;-99.276;2023-07-22T04:47:39;4.97;;;4.57;;
13832;SDS011;6987;19.472;-99.276;2023-07-22T04:50:10;5.32;;;4.80;;
13832;SDS011;6987;19.472;-99.276;2023-07-22T04:52:39;5.47;;;4.95;;
13832;SDS011;6987;19.472;-99.276;2023-07-22T04:55:10;5.97;;;5.20;;
13832;SDS011;6987;19.472;-99.276;2023-07-22T04:57:39;6.32;;;4.80;;
13832;SDS011;6987;19.472;-99.276;2023-07-22T05:00:11;8.43;;;4.63;;
13832;SDS011;6987;19.472;-99.276;2023-07-22T05:02:42;4.93;;;4.47;;
13832;SDS011;6987;19.472;-99.276;2023-07-22T05:05:11;5.50;;;4.47;;
13832;SDS011;6987;19.472;-99.276;2023-07-22T05:07:40;4.97;;;4.57;;
13832;SDS011;6987;19.472;-99.276;2023-07-22T05:10:12;5.95;;;4.88;;
13832;SDS011;6987;19.472;-99.276;2023-07-22T05:12:42;4.57;;;4.28;;
13832;SDS011;6987;19.472;-99.276;2023-07-22T05:15:11;4.68;;;4.38;;
13832;SDS011;6987;19.472;-99.276;2023-07-22T05:17:41;5.18;;;4.60;;
13832;SDS011;6987;19.472;-99.276;2023-07-22T05:20:10;10.05;;;5.40;;
13832;SDS011;6987;19.472;-99.276;2023-07-22T05:22:39;5.82;;;5.10;;
13832;SDS011;6987;19.472;-99.276;2023-07-22T05:25:08;4.75;;;4.35;;
13832;SDS011;6987;19.472;-99.276;2023-07-22T05:27:39;5.18;;;4.70;;
13832;SDS011;6987;19.472;-99.276;2023-07-22T05:30:09;7.15;;;4.85;;
13832;SDS011;6987;19.472;-99.276;2023-07-22T05:32:38;7.60;;;4.88;;
13832;SDS011;6987;19.472;-99.276;2023-07-22T05:35:07;5.40;;;4.95;;
13832;SDS011;6987;19.472;-99.276;2023-07-22T05:37:36;7.15;;;5.00;;
13832;SDS011;6987;19.472;-99.276;2023-07-22T05:40:05;6.07;;;5.50;;
13832;SDS011;6987;19.472;-99.276;2023-07-22T05:42:34;6.28;;;5.70;;
13832;SDS011;6987;19.472;-99.276;2023-07-22T05:45:06;5.70;;;5.10;;
13832;SDS011;6987;19.472;-99.276;2023-07-22T05:47:39;5.97;;;5.47;;
13832;SDS011;6987;19.472;-99.276;2023-07-22T05:50:08;6.28;;;5.68;;
13832;SDS011;6987;19.472;-99.276;2023-07-22T05:52:37;6.05;;;5.45;;
13832;SDS011;6987;19.472;-99.276;2023-07-22T05:55:07;6.95;;;5.97;;
13832;SDS011;6987;19.472;-99.276;2023-07-22T05:57:36;7.20;;;6.00;;
13832;SDS011;6987;19.472;-99.276;2023-07-22T06:00:08;9.40;;;5.95;;
13832;SDS011;6987;19.472;-99.276;2023-07-22T06:02:39;6.80;;;5.90;;
13832;SDS011;6987;19.472;-99.276;2023-07-22T06:05:11;7.18;;;6.57;;
13832;SDS011;6987;19.472;-99.276;2023-07-22T06:07:40;8.35;;;6.43;;
13832;SDS011;6987;19.472;-99.276;2023-07-22T06:10:09;8.48;;;7.18;;
13832;SDS011;6987;19.472;-99.276;2023-07-22T06:12:38;9.93;;;7.88;;
13832;SDS011;6987;19.472;-99.276;2023-07-22T06:15:09;9.90;;;6.95;;
13832;SDS011;6987;19.472;-99.276;2023-07-22T06:17:38;7.75;;;6.95;;
13832;SDS011;6987;19.472;-99.276;2023-07-22T06:20:08;13.88;;;7.40;;
13832;SDS011;6987;19.472;-99.276;2023-07-22T06:22:37;8.20;;;6.35;;
13832;SDS011;6987;19.472;-99.276;2023-07-22T06:25:07;8.18;;;6.47;;
13832;SDS011;6987;19.472;-99.276;2023-07-22T06:27:36;8.95;;;7.13;;
13832;SDS011;6987;19.472;-99.276;2023-07-22T06:30:07;8.13;;;6.97;;
13832;SDS011;6987;19.472;-99.276;2023-07-22T06:32:38;8.43;;;7.00;;
13832;SDS011;6987;19.472;-99.276;2023-07-22T06:35:08;12.52;;;6.85;;
13832;SDS011;6987;19.472;-99.276;2023-07-22T06:37:37;8.55;;;7.45;;
13832;SDS011;6987;19.472;-99.276;2023-07-22T06:40:06;8.98;;;7.22;;
13832;SDS011;6987;19.472;-99.276;2023-07-22T06:42:36;10.30;;;7.45;;
13832;SDS011;6987;19.472;-99.276;2023-07-22T06:45:05;10.23;;;7.50;;
13832;SDS011;6987;19.472;-99.276;2023-07-22T06:47:34;9.70;;;7.00;;
13832;SDS011;6987;19.472;-99.276;2023-07-22T06:50:05;10.73;;;8.07;;
13832;SDS011;6987;19.472;-99.276;2023-07-22T06:52:34;13.02;;;7.15;;
13832;SDS011;6987;19.472;-99.276;2023-07-22T06:55:04;8.60;;;7.38;;
13832;SDS011;6987;19.472;-99.276;2023-07-22T06:57:33;8.70;;;6.90;;
13832;SDS011;6987;19.472;-99.276;2023-07-22T07:00:02;8.20;;;6.72;;
13832;SDS011;6987;19.472;-99.276;2023-07-22T07:02:31;8.88;;;7.05;;
13832;SDS011;6987;19.472;-99.276;2023-07-22T07:05:00;9.30;;;7.30;;
13832;SDS011;6987;19.472;-99.276;2023-07-22T07:07:31;15.00;;;7.50;;
13832;SDS011;6987;19.472;-99.276;2023-07-22T07:10:00;7.65;;;6.95;;
13832;SDS011;6987;19.472;-99.276;2023-07-22T07:12:29;9.10;;;7.00;;
13832;SDS011;6987;19.472;-99.276;2023-07-22T07:14:59;7.40;;;6.80;;
13832;SDS011;6987;19.472;-99.276;2023-07-22T07:17:28;9.05;;;7.75;;
13832;SDS011;6987;19.472;-99.276;2023-07-22T07:19:57;9.13;;;7.75;;
13832;SDS011;6987;19.472;-99.276;2023-07-22T07:22:27;7.82;;;7.07;;
13832;SDS011;6987;19.472;-99.276;2023-07-22T07:24:59;9.10;;;6.95;;
13832;SDS011;6987;19.472;-99.276;2023-07-22T07:27:28;15.60;;;8.10;;
13832;SDS011;6987;19.472;-99.276;2023-07-22T07:29:57;8.38;;;7.68;;
13832;SDS011;6987;19.472;-99.276;2023-07-22T07:32:26;9.43;;;8.35;;
13832;SDS011;6987;19.472;-99.276;2023-07-22T07:34:55;8.45;;;7.75;;
13832;SDS011;6987;19.472;-99.276;2023-07-22T07:37:24;9.13;;;8.23;;
13832;SDS011;6987;19.472;-99.276;2023-07-22T07:39:54;10.52;;;8.85;;
13832;SDS011;6987;19.472;-99.276;2023-07-22T07:42:27;10.43;;;8.48;;
13832;SDS011;6987;19.472;-99.276;2023-07-22T07:44:56;9.13;;;8.23;;
13832;SDS011;6987;19.472;-99.276;2023-07-22T07:50:23;9.73;;;8.43;;
13832;SDS011;6987;19.472;-99.276;2023-07-22T07:52:51;7.88;;;7.07;;
13832;SDS011;6987;19.472;-99.276;2023-07-22T07:55:22;8.25;;;7.53;;
13832;SDS011;6987;19.472;-99.276;2023-07-22T07:57:52;9.63;;;7.55;;
13832;SDS011;6987;19.472;-99.276;2023-07-22T08:00:21;12.60;;;8.20;;
13832;SDS011;6987;19.472;-99.276;2023-07-22T08:02:51;10.65;;;7.90;;
13832;SDS011;6987;19.472;-99.276;2023-07-22T08:05:20;9.02;;;8.30;;
13832;SDS011;6987;19.472;-99.276;2023-07-22T08:07:49;8.80;;;8.02;;
13832;SDS011;6987;19.472;-99.276;2023-07-22T08:10:18;9.63;;;8.02;;
13832;SDS011;6987;19.472;-99.276;2023-07-22T08:12:47;10.40;;;8.30;;
13832;SDS011;6987;19.472;-99.276;2023-07-22T08:15:18;8.85;;;7.97;;
13832;SDS011;6987;19.472;-99.276;2023-07-22T08:17:47;7.25;;;6.63;;
13832;SDS011;6987;19.472;-99.276;2023-07-22T08:20:17;10.48;;;7.78;;
13832;SDS011;6987;19.472;-99.276;2023-07-22T08:22:46;9.30;;;7.10;;
13832;SDS011;6987;19.472;-99.276;2023-07-22T08:25:15;10.05;;;8.20;;
13832;SDS011;6987;19.472;-99.276;2023-07-22T08:27:44;8.50;;;7.32;;
13832;SDS011;6987;19.472;-99.276;2023-07-22T08:30:13;8.20;;;7.40;;
13832;SDS011;6987;19.472;-99.276;2023-07-22T08:32:45;8.68;;;7.40;;
13832;SDS011;6987;19.472;-99.276;2023-07-22T08:35:14;11.45;;;7.15;;
13832;SDS011;6987;19.472;-99.276;2023-07-22T08:37:44;7.95;;;7.15;;
13832;SDS011;6987;19.472;-99.276;2023-07-22T08:40:13;8.48;;;7.78;;
13832;SDS011;6987;19.472;-99.276;2023-07-22T08:42:43;8.25;;;7.43;;
13832;SDS011;6987;19.472;-99.276;2023-07-22T08:45:13;10.45;;;8.13;;
13832;SDS011;6987;19.472;-99.276;2023-07-22T08:47:45;9.57;;;7.50;;
13832;SDS011;6987;19.472;-99.276;2023-07-22T08:50:15;8.13;;;7.38;;
13832;SDS011;6987;19.472;-99.276;2023-07-22T08:52:45;9.05;;;7.55;;
13832;SDS011;6987;19.472;-99.276;2023-07-22T08:55:14;8.68;;;7.78;;
13832;SDS011;6987;19.472;-99.276;2023-07-22T08:57:43;8.85;;;7.95;;
13832;SDS011;6987;19.472;-99.276;2023-07-22T09:00:12;8.63;;;7.85;;
13832;SDS011;6987;19.472;-99.276;2023-07-22T09:02:41;9.32;;;8.13;;
13832;SDS011;6987;19.472;-99.276;2023-07-22T09:05:13;8.27;;;7.57;;
13832;SDS011;6987;19.472;-99.276;2023-07-22T09:07:43;8.20;;;7.40;;
13832;SDS011;6987;19.472;-99.276;2023-07-22T09:10:12;8.98;;;8.13;;
13832;SDS011;6987;19.472;-99.276;2023-07-22T09:12:41;8.40;;;7.63;;
13832;SDS011;6987;19.472;-99.276;2023-07-22T09:15:11;8.73;;;7.85;;
13832;SDS011;6987;19.472;-99.276;2023-07-22T09:17:41;8.68;;;7.95;;
13832;SDS011;6987;19.472;-99.276;2023-07-22T09:20:12;8.68;;;7.88;;
13832;SDS011;6987;19.472;-99.276;2023-07-22T09:22:43;8.18;;;7.28;;
13832;SDS011;6987;19.472;-99.276;2023-07-22T09:25:12;7.95;;;7.10;;
13832;SDS011;6987;19.472;-99.276;2023-07-22T09:27:42;7.90;;;7.20;;
13832;SDS011;6987;19.472;-99.276;2023-07-22T09:30:21;8.23;;;7.50;;
13832;SDS011;6987;19.472;-99.276;2023-07-22T09:32:51;9.05;;;7.25;;
13832;SDS011;6987;19.472;-99.276;2023-07-22T09:35:21;7.95;;;7.20;;
13832;SDS011;6987;19.472;-99.276;2023-07-22T09:37:51;8.13;;;7.38;;
13832;SDS011;6987;19.472;-99.276;2023-07-22T09:40:22;7.90;;;7.20;;
13832;SDS011;6987;19.472;-99.276;2023-07-22T09:42:52;8.70;;;7.60;;
13832;SDS011;6987;19.472;-99.276;2023-07-22T09:45:22;8.35;;;6.97;;
13832;SDS011;6987;19.472;-99.276;2023-07-22T09:47:52;7.70;;;7.00;;
13832;SDS011;6987;19.472;-99.276;2023-07-22T09:50:24;8.30;;;7.45;;
13832;SDS011;6987;19.472;-99.276;2023-07-22T09:52:53;7.45;;;6.75;;
13832;SDS011;6987;19.472;-99.276;2023-07-22T09:55:24;8.48;;;7.28;;
13832;SDS011;6987;19.472;-99.276;2023-07-22T09:57:54;7.78;;;6.97;;
13832;SDS011;6987;19.472;-99.276;2023-07-22T10:00:24;8.15;;;7.35;;
13832;SDS011;6987;19.472;-99.276;2023-07-22T10:02:53;7.75;;;7.10;;
13832;SDS011;6987;19.472;-99.276;2023-07-22T10:05:26;8.23;;;7.40;;
13832;SDS011;6987;19.472;-99.276;2023-07-22T10:07:56;7.72;;;7.03;;
13832;SDS011;6987;19.472;-99.276;2023-07-22T10:10:26;7.43;;;6.72;;
13832;SDS011;6987;19.472;-99.276;2023-07-22T10:12:57;7.97;;;7.28;;
13832;SDS011;6987;19.472;-99.276;2023-07-22T10:15:28;7.68;;;6.88;;
13832;SDS011;6987;19.472;-99.276;2023-07-22T10:17:58;7.65;;;7.05;;
13832;SDS011;6987;19.472;-99.276;2023-07-22T10:20:30;6.97;;;6.47;;
13832;SDS011;6987;19.472;-99.276;2023-07-22T10:23:00;8.02;;;7.25;;
13832;SDS011;6987;19.472;-99.276;2023-07-22T10:25:29;7.28;;;6.63;;
13832;SDS011;6987;19.472;-99.276;2023-07-22T10:27:59;7.57;;;6.95;;
13832;SDS011;6987;19.472;-99.276;2023-07-22T10:30:28;7.53;;;6.82;;
13832;SDS011;6987;19.472;-99.276;2023-07-22T10:32:57;7.65;;;6.90;;
13832;SDS011;6987;19.472;-99.276;2023-07-22T10:35:40;7.20;;;6.60;;
13832;SDS011;6987;19.472;-99.276;2023-07-22T10:38:10;6.88;;;6.38;;
13832;SDS011;6987;19.472;-99.276;2023-07-22T10:40:46;8.77;;;7.00;;
13832;SDS011;6987;19.472;-99.276;2023-07-22T10:43:16;6.75;;;6.25;;
13832;SDS011;6987;19.472;-99.276;2023-07-22T10:45:49;6.32;;;5.60;;
13832;SDS011;6987;19.472;-99.276;2023-07-22T10:48:18;7.38;;;6.68;;
13832;SDS011;6987;19.472;-99.276;2023-07-22T10:50:49;7.15;;;6.53;;
13832;SDS011;6987;19.472;-99.276;2023-07-22T10:53:28;8.32;;;6.88;;
13832;SDS011;6987;19.472;-99.276;2023-07-22T10:56:03;7.07;;;6.25;;
13832;SDS011;6987;19.472;-99.276;2023-07-22T10:58:33;8.10;;;6.60;;
13832;SDS011;6987;19.472;-99.276;2023-07-22T11:06:54;6.45;;;6.05;;
13832;SDS011;6987;19.472;-99.276;2023-07-22T11:09:35;7.13;;;6.10;;
13832;SDS011;6987;19.472;-99.276;2023-07-22T11:12:05;6.65;;;6.15;;
13832;SDS011;6987;19.472;-99.276;2023-07-22T11:14:37;6.90;;;6.40;;
13832;SDS011;6987;19.472;-99.276;2023-07-22T11:17:07;8.63;;;6.78;;
13832;SDS011;6987;19.472;-99.276;2023-07-22T11:19:36;7.72;;;6.97;;
13832;SDS011;6987;19.472;-99.276;2023-07-22T11:22:07;7.20;;;6.63;;
13832;SDS011;6987;19.472;-99.276;2023-07-22T11:24:36;7.35;;;6.63;;
13832;SDS011;6987;19.472;-99.276;2023-07-22T11:27:06;7.18;;;6.57;;
13832;SDS011;6987;19.472;-99.276;2023-07-22T11:29:35;7.15;;;6.45;;
13832;SDS011;6987;19.472;-99.276;2023-07-22T11:32:04;7.88;;;6.32;;
13832;SDS011;6987;19.472;-99.276;2023-07-22T11:34:34;7.20;;;6.50;;
13832;SDS011;6987;19.472;-99.276;2023-07-22T11:37:03;7.13;;;6.10;;
13832;SDS011;6987;19.472;-99.276;2023-07-22T11:39:34;6.70;;;6.18;;
13832;SDS011;6987;19.472;-99.276;2023-07-22T11:42:03;7.13;;;6.53;;
13832;SDS011;6987;19.472;-99.276;2023-07-22T11:44:32;6.57;;;5.97;;
13832;SDS011;6987;19.472;-99.276;2023-07-22T11:47:02;7.70;;;6.20;;
13832;SDS011;6987;19.472;-99.276;2023-07-22T11:49:31;7.90;;;6.95;;
13832;SDS011;6987;19.472;-99.276;2023-07-22T11:52:00;6.60;;;5.80;;
13832;SDS011;6987;19.472;-99.276;2023-07-22T11:54:30;6.32;;;5.82;;
13832;SDS011;6987;19.472;-99.276;2023-07-22T11:57:11;6.60;;;6.07;;
13832;SDS011;6987;19.472;-99.276;2023-07-22T11:59:43;6.93;;;5.97;;
13832;SDS011;6987;19.472;-99.276;2023-07-22T12:02:13;8.55;;;6.15;;
13832;SDS011;6987;19.472;-99.276;2023-07-22T12:04:42;6.90;;;6.30;;
13832;SDS011;6987;19.472;-99.276;2023-07-22T12:09:55;7.13;;;6.43;;
13832;SDS011;6987;19.472;-99.276;2023-07-22T12:12:33;7.65;;;6.82;;
13832;SDS011;6987;19.472;-99.276;2023-07-22T12:15:03;6.88;;;6.22;;
13832;SDS011;6987;19.472;-99.276;2023-07-22T12:17:43;8.57;;;6.45;;
13832;SDS011;6987;19.472;-99.276;2023-07-22T12:20:12;7.25;;;6.55;;
13832;SDS011;6987;19.472;-99.276;2023-07-22T12:22:42;5.70;;;5.22;;
13832;SDS011;6987;19.472;-99.276;2023-07-22T12:25:11;6.55;;;5.95;;
13832;SDS011;6987;19.472;-99.276;2023-07-22T12:27:42;6.07;;;5.57;;
13832;SDS011;6987;19.472;-99.276;2023-07-22T12:30:11;7.15;;;6.05;;
13832;SDS011;6987;19.472;-99.276;2023-07-22T12:32:41;6.20;;;5.70;;
13832;SDS011;6987;19.472;-99.276;2023-07-22T12:35:10;6.57;;;5.93;;
13832;SDS011;6987;19.472;-99.276;2023-07-22T12:37:39;7.53;;;6.68;;
13832;SDS011;6987;19.472;-99.276;2023-07-22T12:40:09;7.07;;;6.47;;
13832;SDS011;6987;19.472;-99.276;2023-07-22T12:42:38;7.38;;;6.05;;
13832;SDS011;6987;19.472;-99.276;2023-07-22T12:45:09;6.95;;;6.35;;
13832;SDS011;6987;19.472;-99.276;2023-07-22T12:47:38;6.95;;;6.32;;
13832;SDS011;6987;19.472;-99.276;2023-07-22T12:50:08;10.00;;;7.03;;
13832;SDS011;6987;19.472;-99.276;2023-07-22T12:52:37;6.57;;;6.05;;
13832;SDS011;6987;19.472;-99.276;2023-07-22T12:55:06;8.20;;;6.75;;
13832;SDS011;6987;19.472;-99.276;2023-07-22T12:57:36;6.20;;;5.55;;
13832;SDS011;6987;19.472;-99.276;2023-07-22T13:00:05;6.43;;;5.75;;
13832;SDS011;6987;19.472;-99.276;2023-07-22T13:02:38;6.82;;;5.43;;
13832;SDS011;6987;19.472;-99.276;2023-07-22T13:05:07;6.03;;;5.50;;
13832;SDS011;6987;19.472;-99.276;2023-07-22T13:07:36;5.78;;;5.35;;
13832;SDS011;6987;19.472;-99.276;2023-07-22T13:10:06;5.90;;;5.40;;
13832;SDS011;6987;19.472;-99.276;2023-07-22T13:12:37;11.70;;;6.10;;
13832;SDS011;6987;19.472;-99.276;2023-07-22T13:15:06;7.68;;;5.82;;
13832;SDS011;6987;19.472;-99.276;2023-07-22T13:17:35;5.95;;;5.45;;
13832;SDS011;6987;19.472;-99.276;2023-07-22T13:20:07;8.50;;;6.05;;
13832;SDS011;6987;19.472;-99.276;2023-07-22T13:22:37;5.72;;;5.22;;
13832;SDS011;6987;19.472;-99.276;2023-07-22T13:25:06;10.63;;;6.22;;
13832;SDS011;6987;19.472;-99.276;2023-07-22T13:27:36;6.47;;;5.90;;
13832;SDS011;6987;19.472;-99.276;2023-07-22T13:30:06;6.43;;;5.90;;
13832;SDS011;6987;19.472;-99.276;2023-07-22T13:32:36;6.05;;;5.45;;
13832;SDS011;6987;19.472;-99.276;2023-07-22T13:35:07;6.85;;;6.28;;
13832;SDS011;6987;19.472;-99.276;2023-07-22T13:37:37;10.15;;;6.43;;
13832;SDS011;6987;19.472;-99.276;2023-07-22T13:40:06;12.82;;;6.25;;
13832;SDS011;6987;19.472;-99.276;2023-07-22T13:42:38;6.07;;;5.60;;
13832;SDS011;6987;19.472;-99.276;2023-07-22T13:45:07;7.30;;;6.13;;
13832;SDS011;6987;19.472;-99.276;2023-07-22T13:47:36;8.93;;;7.97;;
13832;SDS011;6987;19.472;-99.276;2023-07-22T13:50:07;10.32;;;9.07;;
13832;SDS011;6987;19.472;-99.276;2023-07-22T13:52:36;8.90;;;8.07;;
13832;SDS011;6987;19.472;-99.276;2023-07-22T13:55:07;10.30;;;9.20;;
13832;SDS011;6987;19.472;-99.276;2023-07-22T13:57:36;13.90;;;12.00;;
13832;SDS011;6987;19.472;-99.276;2023-07-22T14:00:05;12.57;;;10.93;;
13832;SDS011;6987;19.472;-99.276;2023-07-22T14:02:36;12.55;;;11.35;;
13832;SDS011;6987;19.472;-99.276;2023-07-22T14:05:08;12.70;;;10.90;;
13832;SDS011;6987;19.472;-99.276;2023-07-22T14:07:37;16.88;;;12.20;;
13832;SDS011;6987;19.472;-99.276;2023-07-22T14:10:06;12.95;;;11.68;;
13832;SDS011;6987;19.472;-99.276;2023-07-22T14:12:36;13.82;;;12.05;;
13832;SDS011;6987;19.472;-99.276;2023-07-22T14:15:05;13.20;;;11.85;;
13832;SDS011;6987;19.472;-99.276;2023-07-22T14:17:35;12.82;;;11.63;;
13832;SDS011;6987;19.472;-99.276;2023-07-22T14:20:07;12.32;;;11.23;;
13832;SDS011;6987;19.472;-99.276;2023-07-22T14:22:37;13.85;;;11.20;;
13832;SDS011;6987;19.472;-99.276;2023-07-22T14:25:07;11.55;;;10.43;;
13832;SDS011;6987;19.472;-99.276;2023-07-22T14:27:37;12.10;;;11.00;;
13832;SDS011;6987;19.472;-99.276;2023-07-22T14:30:06;11.43;;;10.30;;
13832;SDS011;6987;19.472;-99.276;2023-07-22T14:32:36;10.93;;;9.95;;
13832;SDS011;6987;19.472;-99.276;2023-07-22T14:35:07;11.75;;;10.55;;
13832;SDS011;6987;19.472;-99.276;2023-07-22T14:37:36;12.70;;;11.50;;
13832;SDS011;6987;19.472;-99.276;2023-07-22T14:40:06;12.05;;;10.82;;
13832;SDS011;6987;19.472;-99.276;2023-07-22T14:42:36;12.85;;;11.13;;
13832;SDS011;6987;19.472;-99.276;2023-07-22T14:45:05;13.05;;;10.75;;
13832;SDS011;6987;19.472;-99.276;2023-07-22T14:47:35;16.02;;;10.55;;
13832;SDS011;6987;19.472;-99.276;2023-07-22T14:50:05;11.93;;;9.75;;
13832;SDS011;6987;19.472;-99.276;2023-07-22T14:52:36;10.00;;;9.05;;
13832;SDS011;6987;19.472;-99.276;2023-07-22T14:55:05;13.02;;;10.88;;
13832;SDS011;6987;19.472;-99.276;2023-07-22T14:57:35;12.02;;;10.45;;